Time;durP1;ratioP1;P1;durP2;ratioP2;P2;SDS_P1;SDS_P2;PMS_P1;PMS_P2;Temp;Humidity;BMP_temperature;BMP_pressure;BME280_temperature;BME280_humidity;BME280_pressure;Samples;Min_cycle;Max_cycle;Signal;HPM_P1;HPM_P2
2021/12/22 00:04:25;;;;;;;18.97;6.83;;;;;;;;;;10200655;29;20055;-73
2021/12/22 00:09:30;;;;;;;28.48;7.85;;;;;;;;;;10208741;29;20054;-73
2021/12/22 00:14:33;;;;;;;15.77;6.20;;;;;;;;;;10199510;29;20118;-72
2021/12/22 00:19:36;;;;;;;16.00;6.67;;;;;;;;;;10198784;29;20301;-74
2021/12/22 00:24:41;;;;;;;12.13;5.20;;;;;;;;;;10198617;29;20721;-73
2021/12/22 00:29:48;;;;;;;18.70;7.40;;;;;;;;;;10199876;29;20044;-75
2021/12/22 00:34:53;;;;;;;19.23;6.83;;;;;;;;;;10260102;23;20062;-70
2021/12/22 00:39:58;;;;;;;19.63;6.47;;;;;;;;;;10261091;28;20221;-71
2021/12/22 00:45:01;;;;;;;15.23;6.20;;;;;;;;;;10250647;28;20075;-70
2021/12/22 00:50:06;;;;;;;11.15;4.63;;;;;;;;;;10236396;28;20333;-71
2021/12/22 00:55:14;;;;;;;19.83;6.73;;;;;;;;;;10246735;28;20472;-71
2021/12/22 01:00:17;;;;;;;15.40;7.20;;;;;;;;;;10252721;28;20095;-70
2021/12/22 01:05:20;;;;;;;15.23;5.57;;;;;;;;;;10242350;28;20077;-71
2021/12/22 01:10:27;;;;;;;14.85;6.30;;;;;;;;;;10251914;28;20078;-72
2021/12/22 01:15:30;;;;;;;23.47;7.10;;;;;;;;;;10248543;28;20043;-70
2021/12/22 01:20:38;;;;;;;15.73;6.60;;;;;;;;;;10244108;28;20115;-72
2021/12/22 01:25:44;;;;;;;17.03;5.93;;;;;;;;;;10250419;28;20355;-74
2021/12/22 01:30:48;;;;;;;19.30;6.30;;;;;;;;;;10228509;28;20047;-72
2021/12/22 01:35:51;;;;;;;20.77;7.10;;;;;;;;;;10240998;28;20043;-71
2021/12/22 01:40:55;;;;;;;8.63;3.20;;;;;;;;;;10248398;28;20039;-71
2021/12/22 01:46:20;;;;;;;22.97;7.03;;;;;;;;;;10245946;28;20057;-71
2021/12/22 01:51:25;;;;;;;18.27;6.07;;;;;;;;;;10250774;28;20035;-70
2021/12/22 01:56:32;;;;;;;19.83;7.30;;;;;;;;;;10250467;28;20063;-72
2021/12/22 02:01:35;;;;;;;15.90;7.07;;;;;;;;;;10253801;28;20486;-70
2021/12/22 02:06:39;;;;;;;10.88;5.50;;;;;;;;;;10253120;28;20066;-71
2021/12/22 02:11:44;;;;;;;11.05;4.90;;;;;;;;;;10243555;28;20384;-70
2021/12/22 02:16:47;;;;;;;24.93;7.13;;;;;;;;;;10258250;28;20031;-69
2021/12/22 02:21:56;;;;;;;13.47;6.27;;;;;;;;;;10256174;28;20197;-72
2021/12/22 02:27:04;;;;;;;19.03;7.70;;;;;;;;;;10267370;28;20043;-71
2021/12/22 02:32:13;;;;;;;18.13;6.53;;;;;;;;;;10262238;28;20373;-73
2021/12/22 02:37:24;;;;;;;17.80;6.53;;;;;;;;;;10262887;28;20035;-71
2021/12/22 02:42:28;;;;;;;16.77;6.17;;;;;;;;;;10261470;28;20061;-72
2021/12/22 02:47:31;;;;;;;13.30;6.53;;;;;;;;;;10242747;28;20113;-74
2021/12/22 02:52:47;;;;;;;17.30;7.50;;;;;;;;;;10258841;28;20343;-72
2021/12/22 02:57:50;;;;;;;14.97;6.27;;;;;;;;;;10258761;28;20439;-72
2021/12/22 03:03:03;;;;;;;8.65;3.20;;;;;;;;;;10258486;28;20031;-71
2021/12/22 03:08:08;;;;;;;9.83;3.77;;;;;;;;;;10232160;28;20050;-71
2021/12/22 03:13:11;;;;;;;20.37;8.30;;;;;;;;;;10252937;28;20035;-70
2021/12/22 03:18:15;;;;;;;3.20;2.30;;;;;;;;;;10255437;28;20167;-72
2021/12/22 03:23:20;;;;;;;18.60;6.87;;;;;;;;;;10250546;28;20039;-72
2021/12/22 03:28:29;;;;;;;14.93;5.67;;;;;;;;;;10248525;28;20039;-70
2021/12/22 03:33:32;;;;;;;19.60;7.33;;;;;;;;;;10256321;28;20034;-71
2021/12/22 03:38:37;;;;;;;20.57;7.80;;;;;;;;;;10236051;28;20053;-72
2021/12/22 03:43:40;;;;;;;14.13;6.27;;;;;;;;;;10238778;28;20407;-73
2021/12/22 03:48:44;;;;;;;23.52;7.95;;;;;;;;;;10242224;28;20063;-74
2021/12/22 03:53:48;;;;;;;3.53;2.20;;;;;;;;;;10258517;28;20065;-72
2021/12/22 03:58:51;;;;;;;23.07;8.03;;;;;;;;;;10247352;28;20066;-72
2021/12/22 04:03:58;;;;;;;13.07;4.40;;;;;;;;;;10254890;28;20045;-71
2021/12/22 04:09:03;;;;;;;15.53;5.27;;;;;;;;;;10231100;28;20050;-72
2021/12/22 04:14:06;;;;;;;25.23;8.53;;;;;;;;;;10231148;28;20043;-72
2021/12/22 04:19:10;;;;;;;14.32;7.13;;;;;;;;;;10248084;28;20144;-72
2021/12/22 04:24:14;;;;;;;13.10;5.83;;;;;;;;;;10275947;28;20066;-73
2021/12/22 04:29:18;;;;;;;5.70;2.87;;;;;;;;;;10248751;28;20830;-70
2021/12/22 04:34:21;;;;;;;9.47;4.87;;;;;;;;;;10250063;28;20069;-71
2021/12/22 04:39:27;;;;;;;9.27;4.40;;;;;;;;;;10275664;28;20047;-72
2021/12/22 04:44:29;;;;;;;14.37;4.07;;;;;;;;;;10272153;28;20043;-73
2021/12/22 04:49:32;;;;;;;14.87;5.70;;;;;;;;;;10265199;28;20043;-70
2021/12/22 04:54:47;;;;;;;12.73;5.17;;;;;;;;;;10254322;28;20035;-72
2021/12/22 04:59:50;;;;;;;22.87;8.23;;;;;;;;;;10249098;28;20039;-70
2021/12/22 05:04:54;;;;;;;9.93;3.90;;;;;;;;;;10230331;28;20050;-72
2021/12/22 05:09:58;;;;;;;19.57;6.03;;;;;;;;;;10228912;28;20062;-72
2021/12/22 05:15:01;;;;;;;12.73;4.03;;;;;;;;;;10252242;28;20043;-73
2021/12/22 05:20:04;;;;;;;16.93;7.03;;;;;;;;;;10252402;28;20557;-72
2021/12/22 05:25:10;;;;;;;18.08;4.60;;;;;;;;;;10247666;28;20488;-72
2021/12/22 05:30:14;;;;;;;15.20;6.37;;;;;;;;;;10255222;28;20127;-72
2021/12/22 05:35:17;;;;;;;12.10;4.77;;;;;;;;;;10258654;28;20063;-72
2021/12/22 05:40:21;;;;;;;8.00;3.53;;;;;;;;;;10254845;28;20380;-71
2021/12/22 05:45:25;;;;;;;30.33;11.27;;;;;;;;;;10240273;28;20059;-72
2021/12/22 05:50:28;;;;;;;15.65;6.57;;;;;;;;;;10251360;28;20042;-71
2021/12/22 05:55:32;;;;;;;31.00;12.90;;;;;;;;;;10266918;28;20070;-71
2021/12/22 06:00:35;;;;;;;;;;;;;;;;;;10243925;28;20078;-74
2021/12/22 06:05:38;;;;;;;5.67;2.17;;;;;;;;;;10259349;28;19945;-72
2021/12/22 06:10:42;;;;;;;36.23;14.90;;;;;;;;;;10269385;28;20126;-70
2021/12/22 06:15:45;;;;;;;;;;;;;;;;;;10244381;28;20035;-70
2021/12/22 06:20:48;;;;;;;19.10;6.33;;;;;;;;;;10258845;28;20566;-70
2021/12/22 06:25:53;;;;;;;21.80;8.50;;;;;;;;;;10255828;28;20035;-70
2021/12/22 06:30:56;;;;;;;19.03;8.40;;;;;;;;;;10241862;28;20426;-71
2021/12/22 06:35:59;;;;;;;18.03;8.17;;;;;;;;;;10256941;28;20038;-72
2021/12/22 06:41:04;;;;;;;31.52;13.57;;;;;;;;;;10261989;28;20047;-72
2021/12/22 06:46:06;;;;;;;;;;;;;;;;;;10263393;23;20046;-72
2021/12/22 06:51:09;;;;;;;12.87;4.73;;;;;;;;;;10257005;28;20266;-73
2021/12/22 06:56:14;;;;;;;15.43;6.07;;;;;;;;;;10252271;28;20464;-73
2021/12/22 07:01:19;;;;;;;;;;;;;;;;;;10263636;28;20054;-73
2021/12/22 07:06:23;;;;;;;10.50;3.27;;;;;;;;;;10292121;28;19922;-73
2021/12/22 07:11:28;;;;;;;16.63;6.03;;;;;;;;;;10265503;28;20403;-73
2021/12/22 07:16:31;;;;;;;6.43;3.53;;;;;;;;;;10283362;28;20057;-73
2021/12/22 07:21:35;;;;;;;12.23;4.03;;;;;;;;;;10290109;28;20439;-74
2021/12/22 07:26:40;;;;;;;32.45;12.10;;;;;;;;;;10282651;28;20231;-74
2021/12/22 07:31:43;;;;;;;14.53;4.23;;;;;;;;;;10282924;28;20433;-74
2021/12/22 07:36:50;;;;;;;6.97;3.73;;;;;;;;;;10278298;28;20063;-74
2021/12/22 07:41:55;;;;;;;14.50;4.87;;;;;;;;;;10264992;28;20385;-72
2021/12/22 07:46:58;;;;;;;11.77;5.10;;;;;;;;;;10282575;28;20078;-73
2021/12/22 07:52:01;;;;;;;32.83;13.33;;;;;;;;;;10279429;28;20075;-72
2021/12/22 07:57:06;;;;;;;21.67;9.03;;;;;;;;;;10269394;28;20467;-73
2021/12/22 08:02:09;;;;;;;13.13;5.20;;;;;;;;;;10270864;28;20097;-74
2021/12/22 08:07:14;;;;;;;33.23;11.87;;;;;;;;;;10288335;28;20042;-72
2021/12/22 08:12:19;;;;;;;36.00;14.87;;;;;;;;;;10266420;28;20061;-72
2021/12/22 08:17:23;;;;;;;23.13;9.10;;;;;;;;;;10285385;28;20041;-73
2021/12/22 08:22:26;;;;;;;38.43;17.33;;;;;;;;;;10271507;28;20043;-74
2021/12/22 08:27:31;;;;;;;31.67;12.37;;;;;;;;;;10287897;28;20110;-74
2021/12/22 08:32:34;;;;;;;30.10;12.20;;;;;;;;;;10281002;28;20487;-74
2021/12/22 08:42:59;;;;;;;10.60;5.40;;;;;;;;;;10287974;28;20050;-74
2021/12/22 08:48:02;;;;;;;9.98;4.35;;;;;;;;;;10280291;28;20554;-74
2021/12/22 08:53:06;;;;;;;18.58;7.18;;;;;;;;;;10261405;28;20042;-73
2021/12/22 08:58:11;;;;;;;15.70;5.93;;;;;;;;;;10274062;28;20105;-73
2021/12/22 09:03:14;;;;;;;11.33;4.43;;;;;;;;;;10286298;28;20522;-73
2021/12/22 09:08:20;;;;;;;27.90;12.57;;;;;;;;;;10285270;28;20076;-73
2021/12/22 09:13:25;;;;;;;27.97;10.20;;;;;;;;;;10292111;28;20034;-75
2021/12/22 09:18:28;;;;;;;8.00;4.17;;;;;;;;;;10260938;28;20543;-73
2021/12/22 09:23:31;;;;;;;26.53;10.47;;;;;;;;;;10276867;28;20039;-74
2021/12/22 09:28:36;;;;;;;24.43;10.20;;;;;;;;;;10291961;28;20038;-73
2021/12/22 09:33:39;;;;;;;11.90;5.27;;;;;;;;;;10265730;28;20565;-74
2021/12/22 09:38:43;;;;;;;29.70;12.15;;;;;;;;;;10286193;28;20035;-75
2021/12/22 09:43:50;;;;;;;10.38;5.22;;;;;;;;;;10292545;28;20574;-75
2021/12/22 09:48:59;;;;;;;12.77;5.43;;;;;;;;;;10293737;28;20035;-74
2021/12/22 09:54:05;;;;;;;18.17;8.17;;;;;;;;;;10265233;28;20119;-73
2021/12/22 09:59:09;;;;;;;14.47;4.73;;;;;;;;;;10281284;28;20050;-73
2021/12/22 10:04:16;;;;;;;17.60;6.20;;;;;;;;;;10272396;28;20034;-75
2021/12/22 10:09:22;;;;;;;19.20;5.90;;;;;;;;;;10286413;28;20392;-72
2021/12/22 10:14:28;;;;;;;15.37;6.23;;;;;;;;;;10283882;28;20100;-74
2021/12/22 10:19:30;;;;;;;8.63;4.80;;;;;;;;;;10273781;28;20073;-74
2021/12/22 10:24:35;;;;;;;6.23;2.73;;;;;;;;;;10285112;28;20057;-73
2021/12/22 10:29:39;;;;;;;19.50;7.47;;;;;;;;;;10274457;28;20082;-73
2021/12/22 10:34:57;;;;;;;14.17;5.73;;;;;;;;;;10296919;28;20046;-73
2021/12/22 10:40:00;;;;;;;18.63;6.60;;;;;;;;;;10277260;28;20046;-73
2021/12/22 10:45:12;;;;;;;14.87;5.03;;;;;;;;;;10283758;28;20380;-74
2021/12/22 10:50:15;;;;;;;10.10;3.80;;;;;;;;;;10292059;28;20046;-73
2021/12/22 10:55:18;;;;;;;21.17;9.57;;;;;;;;;;10282331;28;20066;-73
2021/12/22 11:00:24;;;;;;;19.87;7.37;;;;;;;;;;10308714;28;20119;-72
2021/12/22 11:05:29;;;;;;;9.87;4.20;;;;;;;;;;10281008;28;20038;-73
2021/12/22 11:10:32;;;;;;;15.33;6.13;;;;;;;;;;10287614;28;20122;-73
2021/12/22 11:15:41;;;;;;;14.00;4.83;;;;;;;;;;10299652;28;20083;-73
2021/12/22 11:20:46;;;;;;;19.93;7.93;;;;;;;;;;10288017;28;20107;-72
2021/12/22 11:25:49;;;;;;;14.77;6.60;;;;;;;;;;10282691;28;20038;-73
2021/12/22 11:30:54;;;;;;;12.23;5.17;;;;;;;;;;10269620;28;20090;-73
2021/12/22 11:35:59;;;;;;;16.97;7.80;;;;;;;;;;10267954;28;20502;-72
2021/12/22 11:41:12;;;;;;;21.73;7.33;;;;;;;;;;10282011;28;20126;-72
2021/12/22 11:46:17;;;;;;;21.60;8.67;;;;;;;;;;10276057;28;20117;-72
2021/12/22 11:51:22;;;;;;;20.45;8.90;;;;;;;;;;10266112;28;20035;-73
2021/12/22 11:56:35;;;;;;;17.50;8.68;;;;;;;;;;10264492;28;20039;-73
2021/12/22 12:01:40;;;;;;;22.27;9.43;;;;;;;;;;10286324;28;20552;-72
2021/12/22 12:06:48;;;;;;;22.20;9.38;;;;;;;;;;10283719;28;20514;-74
2021/12/22 12:11:55;;;;;;;16.50;6.97;;;;;;;;;;10279343;28;20046;-73
2021/12/22 12:22:42;;;;;;;19.03;7.93;;;;;;;;;;10291819;28;20255;-72
2021/12/22 12:27:51;;;;;;;19.80;8.93;;;;;;;;;;10285577;28;20089;-73
2021/12/22 12:33:12;;;;;;;18.07;7.60;;;;;;;;;;10286339;28;20126;-74
2021/12/22 12:38:18;;;;;;;19.30;9.48;;;;;;;;;;10274118;28;20562;-72
2021/12/22 12:43:41;;;;;;;17.52;8.35;;;;;;;;;;10273161;28;20054;-73
2021/12/22 12:48:44;;;;;;;18.58;9.48;;;;;;;;;;10308279;23;20099;-71
2021/12/22 12:53:50;;;;;;;24.02;9.27;;;;;;;;;;10284379;28;20464;-69
2021/12/22 12:58:53;;;;;;;20.33;9.70;;;;;;;;;;10276734;28;20035;-70
2021/12/22 13:03:57;;;;;;;22.50;10.18;;;;;;;;;;10280316;28;20464;-70
2021/12/22 13:09:01;;;;;;;21.03;9.37;;;;;;;;;;10280911;28;20030;-68
2021/12/22 13:19:37;;;;;;;20.65;8.50;;;;;;;;;;10267183;28;20059;-71
2021/12/22 13:24:42;;;;;;;18.65;8.50;;;;;;;;;;10286538;28;20467;-71
2021/12/22 13:30:00;;;;;;;18.08;9.07;;;;;;;;;;10271353;28;20067;-72
2021/12/22 13:35:03;;;;;;;18.65;8.85;;;;;;;;;;10281170;28;20037;-70
2021/12/22 13:40:09;;;;;;;16.38;6.38;;;;;;;;;;10299112;28;20042;-71
2021/12/22 13:45:21;;;;;;;20.33;7.22;;;;;;;;;;10287463;28;20116;-71
2021/12/22 13:50:24;;;;;;;16.90;7.40;;;;;;;;;;10288808;28;20047;-70
2021/12/22 13:55:28;;;;;;;21.77;7.97;;;;;;;;;;10276254;28;20039;-71
2021/12/22 14:00:32;;;;;;;19.43;5.73;;;;;;;;;;10292467;28;20056;-69
2021/12/22 14:05:39;;;;;;;20.57;6.83;;;;;;;;;;10294077;28;20541;-71
2021/12/22 14:10:43;;;;;;;18.63;7.00;;;;;;;;;;10306101;28;20525;-70
2021/12/22 14:15:47;;;;;;;18.37;6.40;;;;;;;;;;10288813;28;20137;-69
2021/12/22 14:20:50;;;;;;;20.88;6.70;;;;;;;;;;10275122;28;20094;-72
2021/12/22 14:26:06;;;;;;;19.00;7.10;;;;;;;;;;10308014;28;20115;-70
2021/12/22 14:31:10;;;;;;;23.50;6.53;;;;;;;;;;10269447;28;20042;-69
2021/12/22 14:36:13;;;;;;;13.75;5.43;;;;;;;;;;10293678;28;20073;-69
2021/12/22 14:41:27;;;;;;;19.07;6.67;;;;;;;;;;10287754;28;20043;-71
2021/12/22 14:46:32;;;;;;;20.20;6.60;;;;;;;;;;10283005;28;20042;-70
2021/12/22 14:51:38;;;;;;;15.23;5.60;;;;;;;;;;10306065;28;20077;-71
2021/12/22 14:56:45;;;;;;;8.50;3.30;;;;;;;;;;10297501;28;20379;-70
2021/12/22 15:01:48;;;;;;;21.67;7.20;;;;;;;;;;10307971;28;20601;-71
2021/12/22 15:06:52;;;;;;;15.15;6.63;;;;;;;;;;10291586;28;20122;-71
2021/12/22 15:11:56;;;;;;;2.50;1.75;;;;;;;;;;10292480;28;20035;-72
2021/12/22 15:17:00;;;;;;;8.73;3.60;;;;;;;;;;10303137;28;20035;-72
2021/12/22 15:22:03;;;;;;;14.37;6.20;;;;;;;;;;10320128;28;20045;-71
2021/12/22 15:27:08;;;;;;;12.30;5.50;;;;;;;;;;10291091;28;20049;-72
2021/12/22 15:32:10;;;;;;;;;;;;;;;;;;10316028;28;20072;-72
2021/12/22 15:37:14;;;;;;;12.40;5.33;;;;;;;;;;10323908;28;19922;-70
2021/12/22 15:42:18;;;;;;;13.47;5.73;;;;;;;;;;10296953;28;20054;-72
2021/12/22 15:47:21;;;;;;;15.70;5.43;;;;;;;;;;10313219;28;20070;-72
2021/12/22 15:52:25;;;;;;;18.03;7.70;;;;;;;;;;10299740;28;20043;-71
2021/12/22 15:57:30;;;;;;;16.83;5.45;;;;;;;;;;10299427;28;20049;-70
2021/12/22 16:02:33;;;;;;;18.43;6.57;;;;;;;;;;10280152;28;20049;-70
2021/12/22 16:07:38;;;;;;;16.60;6.37;;;;;;;;;;10292010;28;20066;-69
2021/12/22 16:12:43;;;;;;;15.20;6.30;;;;;;;;;;10282363;28;20097;-70
2021/12/22 16:17:46;;;;;;;12.13;4.00;;;;;;;;;;10270027;28;20495;-69
2021/12/22 16:22:49;;;;;;;19.60;6.20;;;;;;;;;;10289520;28;20535;-71
2021/12/22 16:27:54;;;;;;;16.25;5.45;;;;;;;;;;10292714;28;20067;-71
2021/12/22 16:32:58;;;;;;;16.87;7.17;;;;;;;;;;10276795;28;20090;-68
2021/12/22 16:38:01;;;;;;;9.68;3.30;;;;;;;;;;10282406;28;20031;-70
2021/12/22 16:43:07;;;;;;;13.03;4.90;;;;;;;;;;10270999;28;20058;-70
2021/12/22 16:48:10;;;;;;;8.67;2.83;;;;;;;;;;10294117;28;20289;-71
2021/12/22 16:53:13;;;;;;;7.23;3.50;;;;;;;;;;10287611;28;20049;-71
2021/12/22 16:58:18;;;;;;;12.97;6.27;;;;;;;;;;10295146;28;20117;-72
2021/12/22 17:03:22;;;;;;;15.57;4.20;;;;;;;;;;10288424;28;20112;-70
2021/12/22 17:08:25;;;;;;;6.60;3.00;;;;;;;;;;10295850;28;20097;-69
2021/12/22 17:13:29;;;;;;;3.87;2.43;;;;;;;;;;10270418;28;20054;-69
2021/12/22 17:18:33;;;;;;;14.40;6.00;;;;;;;;;;10301187;28;20030;-70
2021/12/22 17:23:36;;;;;;;10.90;5.30;;;;;;;;;;10275233;28;20038;-72
2021/12/22 17:28:41;;;;;;;9.30;4.15;;;;;;;;;;10293744;28;20218;-72
2021/12/22 17:33:45;;;;;;;5.87;2.80;;;;;;;;;;10297503;28;20042;-70
2021/12/22 17:38:48;;;;;;;15.63;6.82;;;;;;;;;;10272756;28;20086;-69
2021/12/22 17:43:55;;;;;;;9.03;4.33;;;;;;;;;;10300656;28;20097;-71
2021/12/22 17:48:58;;;;;;;13.33;6.73;;;;;;;;;;10302405;28;20058;-71
2021/12/22 17:54:01;;;;;;;17.60;6.63;;;;;;;;;;10295529;28;20066;-70
2021/12/22 17:59:06;;;;;;;22.27;7.15;;;;;;;;;;10314271;28;20400;-70
2021/12/22 18:04:10;;;;;;;15.63;5.13;;;;;;;;;;10278959;28;20145;-70
2021/12/22 18:09:15;;;;;;;14.63;4.97;;;;;;;;;;10296973;28;20043;-70
2021/12/22 18:14:20;;;;;;;9.30;4.00;;;;;;;;;;10277914;28;20062;-70
2021/12/22 18:19:24;;;;;;;13.57;3.93;;;;;;;;;;10310289;28;20529;-70
2021/12/22 18:24:27;;;;;;;16.80;5.77;;;;;;;;;;10294989;28;20042;-70
2021/12/22 18:29:32;;;;;;;16.13;7.37;;;;;;;;;;10286566;28;20133;-70
2021/12/22 18:34:36;;;;;;;14.47;5.03;;;;;;;;;;10302548;28;20035;-70
2021/12/22 18:39:46;;;;;;;10.23;4.50;;;;;;;;;;10305845;28;20065;-70
2021/12/22 18:44:51;;;;;;;6.73;3.00;;;;;;;;;;10274380;28;20070;-70
2021/12/22 18:49:54;;;;;;;16.43;5.27;;;;;;;;;;10326007;23;20043;-73
2021/12/22 18:54:57;;;;;;;12.03;4.50;;;;;;;;;;10279299;28;20121;-73
2021/12/22 19:00:02;;;;;;;17.43;4.73;;;;;;;;;;10303566;28;20049;-73
2021/12/22 19:05:05;;;;;;;14.40;5.60;;;;;;;;;;10312910;28;20109;-73
2021/12/22 19:10:09;;;;;;;11.02;4.18;;;;;;;;;;10304116;28;20097;-73
2021/12/22 19:15:15;;;;;;;8.80;4.13;;;;;;;;;;10320845;28;20065;-74
2021/12/22 19:20:19;;;;;;;8.87;4.07;;;;;;;;;;10301188;28;20468;-74
2021/12/22 19:25:22;;;;;;;10.13;5.37;;;;;;;;;;10319734;28;20153;-73
2021/12/22 19:30:27;;;;;;;33.55;12.43;;;;;;;;;;10324037;28;20127;-72
2021/12/22 19:35:30;;;;;;;20.40;7.70;;;;;;;;;;10321467;28;20046;-73
2021/12/22 19:40:34;;;;;;;23.87;9.73;;;;;;;;;;10321323;28;20041;-73
2021/12/22 19:45:39;;;;;;;14.65;4.50;;;;;;;;;;10326702;28;20088;-74
2021/12/22 19:50:42;;;;;;;16.53;7.13;;;;;;;;;;10321449;28;20105;-73
2021/12/22 19:55:46;;;;;;;14.40;5.68;;;;;;;;;;10309911;28;20287;-74
2021/12/22 20:00:51;;;;;;;22.20;8.35;;;;;;;;;;10327968;28;20037;-73
2021/12/22 20:05:55;;;;;;;17.43;7.20;;;;;;;;;;10309170;28;20129;-72
2021/12/22 20:11:00;;;;;;;16.83;6.40;;;;;;;;;;10315177;28;20046;-72
2021/12/22 20:16:05;;;;;;;5.63;2.33;;;;;;;;;;10313934;28;20049;-74
2021/12/22 20:21:08;;;;;;;18.87;6.40;;;;;;;;;;10309037;28;20539;-75
2021/12/22 20:26:11;;;;;;;13.10;5.47;;;;;;;;;;10302337;28;20046;-73
2021/12/22 20:31:16;;;;;;;26.08;9.52;;;;;;;;;;10303165;28;20050;-73
2021/12/22 20:36:20;;;;;;;21.93;8.13;;;;;;;;;;10288453;28;20050;-73
2021/12/22 20:41:23;;;;;;;9.60;4.53;;;;;;;;;;10312757;28;20046;-74
2021/12/22 20:46:27;;;;;;;21.20;7.90;;;;;;;;;;10277509;28;20742;-74
2021/12/22 20:51:31;;;;;;;12.20;5.57;;;;;;;;;;10300503;28;20050;-73
2021/12/22 20:56:34;;;;;;;9.70;4.47;;;;;;;;;;10323019;28;20070;-73
2021/12/22 21:01:41;;;;;;;18.45;6.60;;;;;;;;;;10297180;28;20059;-73
2021/12/22 21:06:47;;;;;;;3.80;2.33;;;;;;;;;;10300475;28;20058;-73
2021/12/22 21:11:52;;;;;;;8.90;2.67;;;;;;;;;;10304368;28;20108;-73
2021/12/22 21:16:56;;;;;;;20.37;7.87;;;;;;;;;;10284612;28;20084;-73
2021/12/22 21:22:00;;;;;;;22.63;7.20;;;;;;;;;;10295874;28;20042;-74
2021/12/22 21:27:03;;;;;;;21.98;7.35;;;;;;;;;;10309553;28;20045;-73
2021/12/22 21:32:08;;;;;;;18.83;6.63;;;;;;;;;;10289123;28;20161;-75
2021/12/22 21:37:11;;;;;;;11.63;4.77;;;;;;;;;;10305872;28;20031;-73
2021/12/22 21:42:17;;;;;;;24.70;9.20;;;;;;;;;;10315174;28;20495;-74
2021/12/22 21:47:22;;;;;;;20.43;6.90;;;;;;;;;;10295511;28;20038;-74
2021/12/22 21:52:27;;;;;;;19.17;8.30;;;;;;;;;;10293038;28;20057;-77
2021/12/22 21:57:31;;;;;;;7.90;3.75;;;;;;;;;;10319204;28;20039;-75
2021/12/22 22:02:36;;;;;;;15.95;6.07;;;;;;;;;;10322215;28;20034;-74
2021/12/22 22:07:40;;;;;;;15.03;5.17;;;;;;;;;;10296846;28;20518;-74
2021/12/22 22:12:43;;;;;;;7.97;3.30;;;;;;;;;;10296586;28;20042;-76
2021/12/22 22:17:48;;;;;;;14.10;5.05;;;;;;;;;;10291589;28;20061;-76
2021/12/22 22:22:52;;;;;;;22.97;6.90;;;;;;;;;;10308303;28;20538;-75
2021/12/22 22:27:58;;;;;;;10.73;4.73;;;;;;;;;;10298896;28;20671;-75
2021/12/22 22:33:03;;;;;;;18.07;7.53;;;;;;;;;;10320461;28;20046;-75
2021/12/22 22:38:06;;;;;;;17.10;5.07;;;;;;;;;;10298381;28;20125;-74
2021/12/22 22:43:09;;;;;;;14.17;6.83;;;;;;;;;;10314896;28;20530;-74
2021/12/22 22:48:13;;;;;;;13.53;6.80;;;;;;;;;;10302436;28;20458;-73
2021/12/22 22:53:16;;;;;;;21.60;7.17;;;;;;;;;;10307297;28;20421;-74
2021/12/22 22:58:20;;;;;;;20.90;8.30;;;;;;;;;;10293541;28;20090;-73
2021/12/22 23:03:26;;;;;;;25.93;7.67;;;;;;;;;;10281733;28;20129;-73
2021/12/22 23:08:30;;;;;;;26.23;9.53;;;;;;;;;;10285740;28;21296;-74
2021/12/22 23:13:33;;;;;;;21.98;7.75;;;;;;;;;;10315033;28;20034;-73
2021/12/22 23:18:38;;;;;;;24.30;9.00;;;;;;;;;;10307340;28;20039;-73
2021/12/22 23:23:41;;;;;;;19.07;7.07;;;;;;;;;;10355362;28;20042;-73
2021/12/22 23:28:44;;;;;;;24.60;8.70;;;;;;;;;;10355507;28;20049;-73
2021/12/22 23:33:48;;;;;;;19.23;7.23;;;;;;;;;;10306634;28;20058;-74
2021/12/22 23:44:38;;;;;;;38.17;9.60;;;;;;;;;;10291266;28;20042;-73
2021/12/22 23:49:43;;;;;;;31.17;9.17;;;;;;;;;;10309727;28;20712;-72
2021/12/22 23:54:46;;;;;;;22.57;7.97;;;;;;;;;;10308463;28;20506;-74
2021/12/22 23:59:49;;;;;;;16.67;5.53;;;;;;;;;;10298011;28;20034;-73
